sensor_id;sensor_type;location;lat;lon;timestamp;temperature;humidity
45785;DHT22;31489;51.404;5.474;2023-08-08T00:01:43;18.40;70.90
45785;DHT22;31489;51.404;5.474;2023-08-08T00:04:10;18.50;71.00
45785;DHT22;31489;51.404;5.474;2023-08-08T00:06:36;18.40;71.00
45785;DHT22;31489;51.404;5.474;2023-08-08T00:09:03;18.40;71.10
45785;DHT22;31489;51.404;5.474;2023-08-08T00:11:30;18.40;71.20
45785;DHT22;31489;51.404;5.474;2023-08-08T00:13:56;18.40;71.20
45785;DHT22;31489;51.404;5.474;2023-08-08T00:16:22;18.30;71.20
45785;DHT22;31489;51.404;5.474;2023-08-08T00:18:48;18.30;71.30
45785;DHT22;31489;51.404;5.474;2023-08-08T00:21:20;18.30;71.30
45785;DHT22;31489;51.404;5.474;2023-08-08T00:23:46;18.30;71.30
45785;DHT22;31489;51.404;5.474;2023-08-08T00:26:12;18.30;71.40
45785;DHT22;31489;51.404;5.474;2023-08-08T00:28:37;18.30;71.40
45785;DHT22;31489;51.404;5.474;2023-08-08T00:31:03;18.30;71.50
45785;DHT22;31489;51.404;5.474;2023-08-08T00:33:29;18.30;71.70
45785;DHT22;31489;51.404;5.474;2023-08-08T00:35:58;18.30;71.80
45785;DHT22;31489;51.404;5.474;2023-08-08T00:38:24;18.30;71.80
45785;DHT22;31489;51.404;5.474;2023-08-08T00:40:50;18.30;71.80
45785;DHT22;31489;51.404;5.474;2023-08-08T00:43:16;18.20;71.90
45785;DHT22;31489;51.404;5.474;2023-08-08T00:45:42;18.30;72.00
45785;DHT22;31489;51.404;5.474;2023-08-08T00:48:09;18.30;72.10
45785;DHT22;31489;51.404;5.474;2023-08-08T00:50:36;18.30;72.20
45785;DHT22;31489;51.404;5.474;2023-08-08T00:53:04;18.20;72.20
45785;DHT22;31489;51.404;5.474;2023-08-08T00:55:30;18.30;72.20
45785;DHT22;31489;51.404;5.474;2023-08-08T00:57:56;18.30;72.30
45785;DHT22;31489;51.404;5.474;2023-08-08T01:00:22;18.30;72.40
45785;DHT22;31489;51.404;5.474;2023-08-08T01:02:48;18.30;72.40
45785;DHT22;31489;51.404;5.474;2023-08-08T01:05:14;18.20;72.40
45785;DHT22;31489;51.404;5.474;2023-08-08T01:08:27;18.20;72.40
45785;DHT22;31489;51.404;5.474;2023-08-08T01:10:40;18.20;72.50
45785;DHT22;31489;51.404;5.474;2023-08-08T01:13:14;18.30;72.60
45785;DHT22;31489;51.404;5.474;2023-08-08T01:15:41;18.20;72.60
45785;DHT22;31489;51.404;5.474;2023-08-08T01:18:08;18.20;72.70
45785;DHT22;31489;51.404;5.474;2023-08-08T01:20:35;18.20;72.80
45785;DHT22;31489;51.404;5.474;2023-08-08T01:26:02;18.20;72.90
45785;DHT22;31489;51.404;5.474;2023-08-08T01:28:28;18.20;73.10
45785;DHT22;31489;51.404;5.474;2023-08-08T01:30:54;18.20;73.10
45785;DHT22;31489;51.404;5.474;2023-08-08T01:33:20;18.20;73.20
45785;DHT22;31489;51.404;5.474;2023-08-08T01:36:00;18.20;73.20
45785;DHT22;31489;51.404;5.474;2023-08-08T01:38:39;18.20;73.30
45785;DHT22;31489;51.404;5.474;2023-08-08T01:41:06;18.20;73.40
45785;DHT22;31489;51.404;5.474;2023-08-08T01:43:34;18.10;73.40
45785;DHT22;31489;51.404;5.474;2023-08-08T01:46:00;18.10;73.40
45785;DHT22;31489;51.404;5.474;2023-08-08T01:48:28;18.20;73.60
45785;DHT22;31489;51.404;5.474;2023-08-08T01:50:54;18.10;73.50
45785;DHT22;31489;51.404;5.474;2023-08-08T01:53:19;18.10;73.60
45785;DHT22;31489;51.404;5.474;2023-08-08T01:55:45;18.10;73.80
45785;DHT22;31489;51.404;5.474;2023-08-08T01:58:11;18.10;73.80
45785;DHT22;31489;51.404;5.474;2023-08-08T02:00:37;18.00;73.90
45785;DHT22;31489;51.404;5.474;2023-08-08T02:03:03;18.10;74.10
45785;DHT22;31489;51.404;5.474;2023-08-08T02:05:29;18.00;74.10
45785;DHT22;31489;51.404;5.474;2023-08-08T02:07:54;18.00;74.10
45785;DHT22;31489;51.404;5.474;2023-08-08T02:10:23;18.00;74.10
45785;DHT22;31489;51.404;5.474;2023-08-08T02:12:49;18.00;74.20
45785;DHT22;31489;51.404;5.474;2023-08-08T02:15:15;18.00;74.30
45785;DHT22;31489;51.404;5.474;2023-08-08T02:17:41;18.00;74.40
45785;DHT22;31489;51.404;5.474;2023-08-08T02:20:07;17.90;74.40
45785;DHT22;31489;51.404;5.474;2023-08-08T02:22:34;17.90;74.50
45785;DHT22;31489;51.404;5.474;2023-08-08T02:25:00;17.90;74.60
45785;DHT22;31489;51.404;5.474;2023-08-08T02:27:26;17.90;74.70
45785;DHT22;31489;51.404;5.474;2023-08-08T02:29:51;17.90;74.80
45785;DHT22;31489;51.404;5.474;2023-08-08T02:32:17;17.90;74.90
45785;DHT22;31489;51.404;5.474;2023-08-08T02:34:43;17.90;75.00
45785;DHT22;31489;51.404;5.474;2023-08-08T02:37:09;17.80;75.00
45785;DHT22;31489;51.404;5.474;2023-08-08T02:39:35;17.80;75.10
45785;DHT22;31489;51.404;5.474;2023-08-08T02:42:01;17.80;75.20
45785;DHT22;31489;51.404;5.474;2023-08-08T02:44:28;17.70;75.30
45785;DHT22;31489;51.404;5.474;2023-08-08T02:46:53;17.70;75.50
45785;DHT22;31489;51.404;5.474;2023-08-08T02:49:19;17.70;75.60
45785;DHT22;31489;51.404;5.474;2023-08-08T02:51:45;17.70;75.80
45785;DHT22;31489;51.404;5.474;2023-08-08T02:54:11;17.60;75.90
45785;DHT22;31489;51.404;5.474;2023-08-08T02:56:36;17.70;76.10
45785;DHT22;31489;51.404;5.474;2023-08-08T02:59:02;17.60;76.20
45785;DHT22;31489;51.404;5.474;2023-08-08T03:01:28;17.60;76.40
45785;DHT22;31489;51.404;5.474;2023-08-08T03:03:54;17.70;76.60
45785;DHT22;31489;51.404;5.474;2023-08-08T03:06:20;17.70;76.60
45785;DHT22;31489;51.404;5.474;2023-08-08T03:08:46;17.60;76.70
45785;DHT22;31489;51.404;5.474;2023-08-08T03:11:11;17.70;76.90
45785;DHT22;31489;51.404;5.474;2023-08-08T03:13:37;17.70;76.90
45785;DHT22;31489;51.404;5.474;2023-08-08T03:16:03;17.60;76.90
45785;DHT22;31489;51.404;5.474;2023-08-08T03:18:29;17.60;77.10
45785;DHT22;31489;51.404;5.474;2023-08-08T03:20:55;17.60;77.20
45785;DHT22;31489;51.404;5.474;2023-08-08T03:23:21;17.70;77.40
45785;DHT22;31489;51.404;5.474;2023-08-08T03:25:48;17.60;77.30
45785;DHT22;31489;51.404;5.474;2023-08-08T03:28:14;17.70;77.50
45785;DHT22;31489;51.404;5.474;2023-08-08T03:30:40;17.70;77.60
45785;DHT22;31489;51.404;5.474;2023-08-08T03:33:06;17.70;77.60
45785;DHT22;31489;51.404;5.474;2023-08-08T03:35:31;17.60;77.60
45785;DHT22;31489;51.404;5.474;2023-08-08T03:37:57;17.70;77.70
45785;DHT22;31489;51.404;5.474;2023-08-08T03:40:23;17.60;77.90
45785;DHT22;31489;51.404;5.474;2023-08-08T03:42:49;17.60;77.90
45785;DHT22;31489;51.404;5.474;2023-08-08T03:45:15;17.70;77.90
45785;DHT22;31489;51.404;5.474;2023-08-08T03:47:40;17.70;78.00
45785;DHT22;31489;51.404;5.474;2023-08-08T03:50:07;17.60;77.90
45785;DHT22;31489;51.404;5.474;2023-08-08T03:52:34;17.60;77.90
45785;DHT22;31489;51.404;5.474;2023-08-08T03:55:01;17.70;78.00
45785;DHT22;31489;51.404;5.474;2023-08-08T03:57:29;17.60;78.00
45785;DHT22;31489;51.404;5.474;2023-08-08T03:59:54;17.60;78.10
45785;DHT22;31489;51.404;5.474;2023-08-08T04:02:20;17.60;78.10
45785;DHT22;31489;51.404;5.474;2023-08-08T04:04:46;17.60;78.10
45785;DHT22;31489;51.404;5.474;2023-08-08T04:07:14;17.50;78.10
45785;DHT22;31489;51.404;5.474;2023-08-08T04:09:40;17.50;78.20
45785;DHT22;31489;51.404;5.474;2023-08-08T04:12:06;17.50;78.20
45785;DHT22;31489;51.404;5.474;2023-08-08T04:14:32;17.50;78.30
45785;DHT22;31489;51.404;5.474;2023-08-08T04:16:58;17.50;78.40
45785;DHT22;31489;51.404;5.474;2023-08-08T04:19:23;17.50;78.40
45785;DHT22;31489;51.404;5.474;2023-08-08T04:21:49;17.40;78.30
45785;DHT22;31489;51.404;5.474;2023-08-08T04:24:15;17.40;78.40
45785;DHT22;31489;51.404;5.474;2023-08-08T04:26:41;17.40;79.10
45785;DHT22;31489;51.404;5.474;2023-08-08T04:29:07;17.40;78.50
45785;DHT22;31489;51.404;5.474;2023-08-08T04:31:33;17.40;78.60
45785;DHT22;31489;51.404;5.474;2023-08-08T04:34:00;17.40;78.60
45785;DHT22;31489;51.404;5.474;2023-08-08T04:36:29;17.30;78.60
45785;DHT22;31489;51.404;5.474;2023-08-08T04:38:55;17.30;78.80
45785;DHT22;31489;51.404;5.474;2023-08-08T04:41:21;17.30;78.80
45785;DHT22;31489;51.404;5.474;2023-08-08T04:43:47;17.30;78.90
45785;DHT22;31489;51.404;5.474;2023-08-08T04:46:13;17.20;78.90
45785;DHT22;31489;51.404;5.474;2023-08-08T04:48:39;17.20;79.00
45785;DHT22;31489;51.404;5.474;2023-08-08T04:51:05;17.20;79.20
45785;DHT22;31489;51.404;5.474;2023-08-08T04:53:31;17.20;79.20
45785;DHT22;31489;51.404;5.474;2023-08-08T04:55:57;17.20;79.20
45785;DHT22;31489;51.404;5.474;2023-08-08T04:58:23;17.20;79.30
45785;DHT22;31489;51.404;5.474;2023-08-08T05:00:48;17.20;79.40
45785;DHT22;31489;51.404;5.474;2023-08-08T05:03:16;17.20;79.40
45785;DHT22;31489;51.404;5.474;2023-08-08T05:05:42;17.10;79.40
45785;DHT22;31489;51.404;5.474;2023-08-08T05:08:13;17.10;79.40
45785;DHT22;31489;51.404;5.474;2023-08-08T05:10:40;17.10;79.50
45785;DHT22;31489;51.404;5.474;2023-08-08T05:13:05;17.10;79.60
45785;DHT22;31489;51.404;5.474;2023-08-08T05:15:31;17.10;79.60
45785;DHT22;31489;51.404;5.474;2023-08-08T05:17:57;17.20;79.60
45785;DHT22;31489;51.404;5.474;2023-08-08T05:20:23;17.20;79.70
45785;DHT22;31489;51.404;5.474;2023-08-08T05:22:49;17.20;79.70
45785;DHT22;31489;51.404;5.474;2023-08-08T05:25:15;17.10;79.70
45785;DHT22;31489;51.404;5.474;2023-08-08T05:27:40;17.10;79.70
45785;DHT22;31489;51.404;5.474;2023-08-08T05:30:07;17.10;79.80
45785;DHT22;31489;51.404;5.474;2023-08-08T05:32:32;17.10;79.90
45785;DHT22;31489;51.404;5.474;2023-08-08T05:34:58;17.10;80.00
45785;DHT22;31489;51.404;5.474;2023-08-08T05:37:26;17.10;80.00
45785;DHT22;31489;51.404;5.474;2023-08-08T05:39:52;17.20;80.10
45785;DHT22;31489;51.404;5.474;2023-08-08T05:42:18;17.20;80.20
45785;DHT22;31489;51.404;5.474;2023-08-08T05:44:43;17.20;80.20
45785;DHT22;31489;51.404;5.474;2023-08-08T05:47:10;17.20;80.20
45785;DHT22;31489;51.404;5.474;2023-08-08T05:49:35;17.20;80.30
45785;DHT22;31489;51.404;5.474;2023-08-08T05:52:01;17.20;80.40
45785;DHT22;31489;51.404;5.474;2023-08-08T05:54:27;17.20;80.50
45785;DHT22;31489;51.404;5.474;2023-08-08T05:56:54;17.20;80.50
45785;DHT22;31489;51.404;5.474;2023-08-08T05:59:22;17.30;80.70
45785;DHT22;31489;51.404;5.474;2023-08-08T06:01:48;17.30;80.80
45785;DHT22;31489;51.404;5.474;2023-08-08T06:04:14;17.30;80.80
45785;DHT22;31489;51.404;5.474;2023-08-08T06:06:39;17.30;80.80
45785;DHT22;31489;51.404;5.474;2023-08-08T06:09:05;17.50;80.90
45785;DHT22;31489;51.404;5.474;2023-08-08T06:11:31;17.50;80.80
45785;DHT22;31489;51.404;5.474;2023-08-08T06:13:57;17.50;80.80
45785;DHT22;31489;51.404;5.474;2023-08-08T06:16:23;17.50;80.80
45785;DHT22;31489;51.404;5.474;2023-08-08T06:18:49;17.60;80.80
45785;DHT22;31489;51.404;5.474;2023-08-08T06:21:14;17.60;80.80
45785;DHT22;31489;51.404;5.474;2023-08-08T06:23:40;17.60;80.80
45785;DHT22;31489;51.404;5.474;2023-08-08T06:26:06;17.70;80.90
45785;DHT22;31489;51.404;5.474;2023-08-08T06:28:32;17.70;80.80
45785;DHT22;31489;51.404;5.474;2023-08-08T06:30:58;17.70;80.80
45785;DHT22;31489;51.404;5.474;2023-08-08T06:33:25;17.70;80.80
45785;DHT22;31489;51.404;5.474;2023-08-08T06:35:51;17.80;80.90
45785;DHT22;31489;51.404;5.474;2023-08-08T06:38:17;17.80;80.70
45785;DHT22;31489;51.404;5.474;2023-08-08T06:40:43;17.90;80.60
45785;DHT22;31489;51.404;5.474;2023-08-08T06:43:09;17.90;80.50
45785;DHT22;31489;51.404;5.474;2023-08-08T06:45:35;17.90;80.50
45785;DHT22;31489;51.404;5.474;2023-08-08T06:48:01;18.00;80.60
45785;DHT22;31489;51.404;5.474;2023-08-08T06:50:28;18.00;80.60
45785;DHT22;31489;51.404;5.474;2023-08-08T06:52:53;18.00;80.70
45785;DHT22;31489;51.404;5.474;2023-08-08T06:55:19;18.00;80.70
45785;DHT22;31489;51.404;5.474;2023-08-08T06:57:46;18.00;80.70
45785;DHT22;31489;51.404;5.474;2023-08-08T07:00:12;18.10;80.80
45785;DHT22;31489;51.404;5.474;2023-08-08T07:02:39;18.10;80.80
45785;DHT22;31489;51.404;5.474;2023-08-08T07:05:05;18.20;80.80
45785;DHT22;31489;51.404;5.474;2023-08-08T07:07:32;18.20;80.80
45785;DHT22;31489;51.404;5.474;2023-08-08T07:09:59;18.30;80.70
45785;DHT22;31489;51.404;5.474;2023-08-08T07:12:26;18.30;80.60
45785;DHT22;31489;51.404;5.474;2023-08-08T07:14:51;18.40;80.70
45785;DHT22;31489;51.404;5.474;2023-08-08T07:17:17;18.40;80.60
45785;DHT22;31489;51.404;5.474;2023-08-08T07:19:43;18.50;80.30
45785;DHT22;31489;51.404;5.474;2023-08-08T07:22:08;18.60;80.50
45785;DHT22;31489;51.404;5.474;2023-08-08T07:24:34;18.70;80.50
45785;DHT22;31489;51.404;5.474;2023-08-08T07:27:00;18.70;80.20
45785;DHT22;31489;51.404;5.474;2023-08-08T07:29:26;18.80;80.20
45785;DHT22;31489;51.404;5.474;2023-08-08T07:31:53;18.90;79.70
45785;DHT22;31489;51.404;5.474;2023-08-08T07:34:19;19.00;79.50
45785;DHT22;31489;51.404;5.474;2023-08-08T07:36:47;19.10;79.60
45785;DHT22;31489;51.404;5.474;2023-08-08T07:39:13;19.10;79.20
45785;DHT22;31489;51.404;5.474;2023-08-08T07:41:39;19.20;79.50
45785;DHT22;31489;51.404;5.474;2023-08-08T07:44:05;19.30;79.30
45785;DHT22;31489;51.404;5.474;2023-08-08T07:46:31;19.40;79.10
45785;DHT22;31489;51.404;5.474;2023-08-08T07:48:57;19.40;78.70
45785;DHT22;31489;51.404;5.474;2023-08-08T07:51:25;19.50;78.70
45785;DHT22;31489;51.404;5.474;2023-08-08T07:53:51;19.60;78.40
45785;DHT22;31489;51.404;5.474;2023-08-08T07:56:16;19.60;77.80
45785;DHT22;31489;51.404;5.474;2023-08-08T07:58:42;19.60;77.70
45785;DHT22;31489;51.404;5.474;2023-08-08T08:01:08;19.70;77.60
45785;DHT22;31489;51.404;5.474;2023-08-08T08:03:33;19.80;77.40
45785;DHT22;31489;51.404;5.474;2023-08-08T08:05:59;19.80;77.30
45785;DHT22;31489;51.404;5.474;2023-08-08T08:08:25;19.90;76.80
45785;DHT22;31489;51.404;5.474;2023-08-08T08:10:50;19.90;76.80
45785;DHT22;31489;51.404;5.474;2023-08-08T08:13:17;20.00;76.40
45785;DHT22;31489;51.404;5.474;2023-08-08T08:15:43;20.00;76.20
45785;DHT22;31489;51.404;5.474;2023-08-08T08:18:09;20.10;76.60
45785;DHT22;31489;51.404;5.474;2023-08-08T08:20:36;20.10;76.30
45785;DHT22;31489;51.404;5.474;2023-08-08T08:23:02;20.10;76.00
45785;DHT22;31489;51.404;5.474;2023-08-08T08:25:28;20.20;75.60
45785;DHT22;31489;51.404;5.474;2023-08-08T08:27:54;20.20;75.30
45785;DHT22;31489;51.404;5.474;2023-08-08T08:30:19;20.20;75.00
45785;DHT22;31489;51.404;5.474;2023-08-08T08:32:47;20.20;74.70
45785;DHT22;31489;51.404;5.474;2023-08-08T08:35:14;20.20;74.60
45785;DHT22;31489;51.404;5.474;2023-08-08T08:37:41;20.20;74.80
45785;DHT22;31489;51.404;5.474;2023-08-08T08:40:08;20.20;74.50
45785;DHT22;31489;51.404;5.474;2023-08-08T08:42:35;20.20;74.10
45785;DHT22;31489;51.404;5.474;2023-08-08T08:45:03;20.20;74.00
45785;DHT22;31489;51.404;5.474;2023-08-08T08:47:30;20.20;73.30
45785;DHT22;31489;51.404;5.474;2023-08-08T08:49:57;20.20;73.60
45785;DHT22;31489;51.404;5.474;2023-08-08T08:52:23;20.20;73.40
45785;DHT22;31489;51.404;5.474;2023-08-08T08:54:51;20.20;73.40
45785;DHT22;31489;51.404;5.474;2023-08-08T08:57:17;20.20;73.20
45785;DHT22;31489;51.404;5.474;2023-08-08T08:59:44;20.20;73.20
45785;DHT22;31489;51.404;5.474;2023-08-08T09:02:10;20.20;73.40
45785;DHT22;31489;51.404;5.474;2023-08-08T09:04:37;20.20;73.20
45785;DHT22;31489;51.404;5.474;2023-08-08T09:07:05;20.20;73.30
45785;DHT22;31489;51.404;5.474;2023-08-08T09:09:32;20.20;73.00
45785;DHT22;31489;51.404;5.474;2023-08-08T09:11:58;20.30;73.20
45785;DHT22;31489;51.404;5.474;2023-08-08T09:14:25;20.30;73.20
45785;DHT22;31489;51.404;5.474;2023-08-08T09:16:53;20.30;73.00
45785;DHT22;31489;51.404;5.474;2023-08-08T09:19:25;20.30;73.00
45785;DHT22;31489;51.404;5.474;2023-08-08T09:21:51;20.30;73.10
45785;DHT22;31489;51.404;5.474;2023-08-08T09:24:20;20.30;72.70
45785;DHT22;31489;51.404;5.474;2023-08-08T09:26:47;20.30;72.70
45785;DHT22;31489;51.404;5.474;2023-08-08T09:29:14;20.30;72.90
45785;DHT22;31489;51.404;5.474;2023-08-08T09:31:40;20.30;73.10
45785;DHT22;31489;51.404;5.474;2023-08-08T09:34:06;20.30;73.40
45785;DHT22;31489;51.404;5.474;2023-08-08T09:36:33;20.40;73.60
45785;DHT22;31489;51.404;5.474;2023-08-08T09:39:00;20.40;73.40
45785;DHT22;31489;51.404;5.474;2023-08-08T09:41:26;20.40;73.50
45785;DHT22;31489;51.404;5.474;2023-08-08T09:43:53;20.50;73.20
45785;DHT22;31489;51.404;5.474;2023-08-08T09:46:20;20.50;73.00
45785;DHT22;31489;51.404;5.474;2023-08-08T09:48:46;20.50;73.00
45785;DHT22;31489;51.404;5.474;2023-08-08T09:51:12;20.50;72.70
45785;DHT22;31489;51.404;5.474;2023-08-08T09:53:39;20.50;73.00
45785;DHT22;31489;51.404;5.474;2023-08-08T09:56:05;20.60;73.30
45785;DHT22;31489;51.404;5.474;2023-08-08T09:58:32;20.60;73.20
45785;DHT22;31489;51.404;5.474;2023-08-08T10:00:58;20.60;73.50
45785;DHT22;31489;51.404;5.474;2023-08-08T10:03:25;20.70;73.30
45785;DHT22;31489;51.404;5.474;2023-08-08T10:05:52;20.70;72.70
45785;DHT22;31489;51.404;5.474;2023-08-08T10:08:18;20.80;73.00
45785;DHT22;31489;51.404;5.474;2023-08-08T10:10:46;20.90;72.60
45785;DHT22;31489;51.404;5.474;2023-08-08T10:13:32;21.00;71.70
45785;DHT22;31489;51.404;5.474;2023-08-08T10:16:04;21.10;70.50
45785;DHT22;31489;51.404;5.474;2023-08-08T10:18:33;21.10;70.50
45785;DHT22;31489;51.404;5.474;2023-08-08T10:20:59;21.20;71.00
45785;DHT22;31489;51.404;5.474;2023-08-08T10:23:25;21.20;70.50
45785;DHT22;31489;51.404;5.474;2023-08-08T10:25:52;21.30;70.30
45785;DHT22;31489;51.404;5.474;2023-08-08T10:28:21;21.30;69.90
45785;DHT22;31489;51.404;5.474;2023-08-08T10:30:56;21.40;69.50
45785;DHT22;31489;51.404;5.474;2023-08-08T10:33:24;21.40;69.60
45785;DHT22;31489;51.404;5.474;2023-08-08T10:38:26;21.60;69.60
45785;DHT22;31489;51.404;5.474;2023-08-08T10:40:59;21.70;68.70
45785;DHT22;31489;51.404;5.474;2023-08-08T10:43:31;21.80;68.20
45785;DHT22;31489;51.404;5.474;2023-08-08T10:46:01;21.90;67.90
45785;DHT22;31489;51.404;5.474;2023-08-08T10:48:27;21.90;67.00
45785;DHT22;31489;51.404;5.474;2023-08-08T10:51:00;22.00;67.80
45785;DHT22;31489;51.404;5.474;2023-08-08T10:53:30;22.00;65.50
45785;DHT22;31489;51.404;5.474;2023-08-08T10:56:01;21.90;65.90
45785;DHT22;31489;51.404;5.474;2023-08-08T10:58:42;21.90;65.40
45785;DHT22;31489;51.404;5.474;2023-08-08T11:01:08;21.90;65.40
45785;DHT22;31489;51.404;5.474;2023-08-08T11:03:39;21.80;66.00
45785;DHT22;31489;51.404;5.474;2023-08-08T11:06:09;21.80;65.70
45785;DHT22;31489;51.404;5.474;2023-08-08T11:08:35;21.80;65.20
45785;DHT22;31489;51.404;5.474;2023-08-08T11:11:04;21.80;66.20
45785;DHT22;31489;51.404;5.474;2023-08-08T11:13:29;21.80;66.30
45785;DHT22;31489;51.404;5.474;2023-08-08T11:15:55;21.80;67.30
45785;DHT22;31489;51.404;5.474;2023-08-08T11:18:21;22.00;67.70
45785;DHT22;31489;51.404;5.474;2023-08-08T11:20:49;22.20;68.10
45785;DHT22;31489;51.404;5.474;2023-08-08T11:23:15;22.30;66.90
45785;DHT22;31489;51.404;5.474;2023-08-08T11:25:44;22.50;66.40
45785;DHT22;31489;51.404;5.474;2023-08-08T11:28:11;22.70;65.50
45785;DHT22;31489;51.404;5.474;2023-08-08T11:30:42;22.70;64.60
45785;DHT22;31489;51.404;5.474;2023-08-08T11:33:09;22.80;64.00
45785;DHT22;31489;51.404;5.474;2023-08-08T11:35:36;22.70;63.20
45785;DHT22;31489;51.404;5.474;2023-08-08T11:38:03;22.70;63.50
45785;DHT22;31489;51.404;5.474;2023-08-08T11:40:30;22.80;63.00
45785;DHT22;31489;51.404;5.474;2023-08-08T11:42:57;22.70;62.60
45785;DHT22;31489;51.404;5.474;2023-08-08T11:45:23;22.70;62.30
45785;DHT22;31489;51.404;5.474;2023-08-08T11:47:55;22.70;62.30
45785;DHT22;31489;51.404;5.474;2023-08-08T11:50:22;22.60;62.20
45785;DHT22;31489;51.404;5.474;2023-08-08T11:52:50;22.60;62.40
45785;DHT22;31489;51.404;5.474;2023-08-08T11:55:17;22.50;63.10
45785;DHT22;31489;51.404;5.474;2023-08-08T11:57:48;22.50;63.20
45785;DHT22;31489;51.404;5.474;2023-08-08T12:00:14;22.40;62.90
45785;DHT22;31489;51.404;5.474;2023-08-08T12:02:42;22.40;63.40
45785;DHT22;31489;51.404;5.474;2023-08-08T12:05:10;22.30;62.60
45785;DHT22;31489;51.404;5.474;2023-08-08T12:07:37;22.40;62.70
45785;DHT22;31489;51.404;5.474;2023-08-08T12:10:12;22.40;63.70
45785;DHT22;31489;51.404;5.474;2023-08-08T12:12:38;22.60;63.80
45785;DHT22;31489;51.404;5.474;2023-08-08T12:15:06;22.70;63.20
45785;DHT22;31489;51.404;5.474;2023-08-08T12:17:32;22.90;62.60
45785;DHT22;31489;51.404;5.474;2023-08-08T12:20:04;23.10;61.20
45785;DHT22;31489;51.404;5.474;2023-08-08T12:22:31;23.20;60.60
45785;DHT22;31489;51.404;5.474;2023-08-08T12:24:57;23.30;61.50
45785;DHT22;31489;51.404;5.474;2023-08-08T12:27:22;23.30;61.10
45785;DHT22;31489;51.404;5.474;2023-08-08T12:29:48;23.50;60.40
45785;DHT22;31489;51.404;5.474;2023-08-08T12:32:14;23.50;60.50
45785;DHT22;31489;51.404;5.474;2023-08-08T12:34:39;23.50;60.40
45785;DHT22;31489;51.404;5.474;2023-08-08T12:37:05;23.50;59.10
45785;DHT22;31489;51.404;5.474;2023-08-08T12:39:31;23.50;58.10
45785;DHT22;31489;51.404;5.474;2023-08-08T12:41:57;23.60;58.10
45785;DHT22;31489;51.404;5.474;2023-08-08T12:44:22;23.70;58.60
45785;DHT22;31489;51.404;5.474;2023-08-08T12:46:48;23.80;58.30
45785;DHT22;31489;51.404;5.474;2023-08-08T12:49:14;23.90;57.10
45785;DHT22;31489;51.404;5.474;2023-08-08T12:51:40;24.00;56.90
45785;DHT22;31489;51.404;5.474;2023-08-08T12:54:06;24.20;57.40
45785;DHT22;31489;51.404;5.474;2023-08-08T12:56:32;24.30;57.10
45785;DHT22;31489;51.404;5.474;2023-08-08T12:58:58;24.40;57.10
45785;DHT22;31489;51.404;5.474;2023-08-08T13:01:24;24.60;56.70
45785;DHT22;31489;51.404;5.474;2023-08-08T13:03:51;24.80;55.30
45785;DHT22;31489;51.404;5.474;2023-08-08T13:06:16;25.00;55.00
45785;DHT22;31489;51.404;5.474;2023-08-08T13:08:42;25.10;54.50
45785;DHT22;31489;51.404;5.474;2023-08-08T13:11:09;25.20;54.30
45785;DHT22;31489;51.404;5.474;2023-08-08T13:13:35;25.40;54.80
45785;DHT22;31489;51.404;5.474;2023-08-08T13:16:01;25.50;54.20
45785;DHT22;31489;51.404;5.474;2023-08-08T13:18:31;25.70;53.90
45785;DHT22;31489;51.404;5.474;2023-08-08T13:21:02;25.80;53.20
45785;DHT22;31489;51.404;5.474;2023-08-08T13:23:28;25.80;51.50
45785;DHT22;31489;51.404;5.474;2023-08-08T13:25:54;25.90;52.10
45785;DHT22;31489;51.404;5.474;2023-08-08T13:28:20;26.00;50.90
45785;DHT22;31489;51.404;5.474;2023-08-08T13:30:46;26.00;51.60
45785;DHT22;31489;51.404;5.474;2023-08-08T13:33:14;26.10;50.70
45785;DHT22;31489;51.404;5.474;2023-08-08T13:35:40;26.10;50.50
45785;DHT22;31489;51.404;5.474;2023-08-08T13:38:09;26.10;50.70
45785;DHT22;31489;51.404;5.474;2023-08-08T13:40:41;26.20;50.20
45785;DHT22;31489;51.404;5.474;2023-08-08T13:43:08;26.20;50.00
45785;DHT22;31489;51.404;5.474;2023-08-08T13:45:38;26.20;49.80
45785;DHT22;31489;51.404;5.474;2023-08-08T13:48:08;26.20;50.10
45785;DHT22;31489;51.404;5.474;2023-08-08T13:50:35;26.20;50.20
45785;DHT22;31489;51.404;5.474;2023-08-08T13:53:01;26.30;50.30
45785;DHT22;31489;51.404;5.474;2023-08-08T13:55:27;26.30;49.30
45785;DHT22;31489;51.404;5.474;2023-08-08T13:57:52;26.30;49.40
45785;DHT22;31489;51.404;5.474;2023-08-08T14:00:20;26.30;49.60
45785;DHT22;31489;51.404;5.474;2023-08-08T14:02:47;26.30;49.80
45785;DHT22;31489;51.404;5.474;2023-08-08T14:05:15;26.30;50.00
45785;DHT22;31489;51.404;5.474;2023-08-08T14:07:42;26.40;50.60
45785;DHT22;31489;51.404;5.474;2023-08-08T14:10:15;26.40;50.60
45785;DHT22;31489;51.404;5.474;2023-08-08T14:12:53;26.40;50.30
45785;DHT22;31489;51.404;5.474;2023-08-08T14:15:29;26.50;49.50
45785;DHT22;31489;51.404;5.474;2023-08-08T14:17:59;26.40;48.80
45785;DHT22;31489;51.404;5.474;2023-08-08T14:20:25;26.40;49.60
45785;DHT22;31489;51.404;5.474;2023-08-08T14:22:54;26.30;49.00
45785;DHT22;31489;51.404;5.474;2023-08-08T14:25:23;26.10;49.00
45785;DHT22;31489;51.404;5.474;2023-08-08T14:27:49;25.90;49.40
45785;DHT22;31489;51.404;5.474;2023-08-08T14:30:18;25.70;50.10
45785;DHT22;31489;51.404;5.474;2023-08-08T14:32:46;25.50;50.50
45785;DHT22;31489;51.404;5.474;2023-08-08T14:35:12;25.40;51.30
45785;DHT22;31489;51.404;5.474;2023-08-08T14:37:38;25.30;51.50
45785;DHT22;31489;51.404;5.474;2023-08-08T14:40:04;25.20;51.80
45785;DHT22;31489;51.404;5.474;2023-08-08T14:42:31;25.10;51.80
45785;DHT22;31489;51.404;5.474;2023-08-08T14:45:00;25.10;52.20
45785;DHT22;31489;51.404;5.474;2023-08-08T14:47:26;25.10;53.00
45785;DHT22;31489;51.404;5.474;2023-08-08T14:49:52;25.10;53.00
45785;DHT22;31489;51.404;5.474;2023-08-08T14:52:21;25.00;52.60
45785;DHT22;31489;51.404;5.474;2023-08-08T14:54:46;25.10;52.60
45785;DHT22;31489;51.404;5.474;2023-08-08T14:57:12;25.00;52.60
45785;DHT22;31489;51.404;5.474;2023-08-08T14:59:48;25.00;52.20
45785;DHT22;31489;51.404;5.474;2023-08-08T15:02:13;25.00;51.80
45785;DHT22;31489;51.404;5.474;2023-08-08T15:04:39;25.00;52.30
45785;DHT22;31489;51.404;5.474;2023-08-08T15:07:05;24.90;52.00
45785;DHT22;31489;51.404;5.474;2023-08-08T15:09:30;24.90;52.20
45785;DHT22;31489;51.404;5.474;2023-08-08T15:11:56;24.80;52.60
45785;DHT22;31489;51.404;5.474;2023-08-08T15:14:22;24.80;52.60
45785;DHT22;31489;51.404;5.474;2023-08-08T15:16:54;24.70;52.50
45785;DHT22;31489;51.404;5.474;2023-08-08T15:19:22;24.60;52.20
45785;DHT22;31489;51.404;5.474;2023-08-08T15:21:48;24.50;52.40
45785;DHT22;31489;51.404;5.474;2023-08-08T15:24:14;24.50;53.40
45785;DHT22;31489;51.404;5.474;2023-08-08T15:26:40;24.40;53.70
45785;DHT22;31489;51.404;5.474;2023-08-08T15:29:06;24.40;53.60
45785;DHT22;31489;51.404;5.474;2023-08-08T15:31:34;24.40;53.70
45785;DHT22;31489;51.404;5.474;2023-08-08T15:34:01;24.40;53.80